createdAt,value
2023-08-29T00:02:13.432Z,19.70
2023-08-29T00:04:45.646Z,19.69
2023-08-29T00:07:17.606Z,19.67
2023-08-29T00:09:49.576Z,19.63
2023-08-29T00:12:22.090Z,19.56
2023-08-29T00:14:54.698Z,19.47
2023-08-29T00:17:33.228Z,19.37
2023-08-29T00:20:08.871Z,19.26
2023-08-29T00:22:45.225Z,19.14
2023-08-29T00:25:17.515Z,19.05
2023-08-29T00:27:54.336Z,18.96
2023-08-29T00:30:26.770Z,18.89
2023-08-29T00:32:58.867Z,18.85
2023-08-29T00:35:33.111Z,18.82
2023-08-29T00:38:07.531Z,18.80
2023-08-29T00:40:52.682Z,18.77
2023-08-29T00:43:27.861Z,18.77
2023-08-29T00:46:02.384Z,18.76
2023-08-29T00:48:35.425Z,18.74
2023-08-29T00:51:07.914Z,18.70
2023-08-29T00:53:40.431Z,18.68
2023-08-29T00:56:20.560Z,18.67
2023-08-29T00:58:56.729Z,18.66
2023-08-29T01:01:30.516Z,18.66
2023-08-29T01:04:06.288Z,18.64
2023-08-29T01:06:41.676Z,18.63
2023-08-29T01:09:15.297Z,18.67
2023-08-29T01:11:57.176Z,18.70
2023-08-29T01:14:39.192Z,18.74
2023-08-29T01:17:18.069Z,18.75
2023-08-29T01:19:56.836Z,18.76
2023-08-29T01:22:39.758Z,18.76
2023-08-29T01:25:20.577Z,18.76
2023-08-29T01:27:58.887Z,18.75
2023-08-29T01:30:33.532Z,18.75
2023-08-29T01:33:06.168Z,18.74
2023-08-29T01:35:45.254Z,18.75
2023-08-29T01:38:21.510Z,18.75
2023-08-29T01:41:00.751Z,18.77
2023-08-29T01:43:36.530Z,18.77
2023-08-29T01:46:08.805Z,18.78
2023-08-29T01:48:49.625Z,18.80
2023-08-29T01:51:22.375Z,18.79
2023-08-29T01:53:57.682Z,18.79
2023-08-29T01:56:34.204Z,18.79
2023-08-29T01:59:10.603Z,18.76
2023-08-29T02:01:58.866Z,18.73
2023-08-29T02:04:34.582Z,18.72
2023-08-29T02:07:06.845Z,18.71
2023-08-29T02:09:39.664Z,18.73
2023-08-29T02:12:11.930Z,18.73
2023-08-29T02:14:45.746Z,18.75
2023-08-29T02:17:17.850Z,18.73
2023-08-29T02:19:52.616Z,18.73
2023-08-29T02:22:26.827Z,18.74
2023-08-29T02:25:01.241Z,18.76
2023-08-29T02:27:34.360Z,18.79
2023-08-29T02:30:09.680Z,18.83
2023-08-29T02:32:46.072Z,18.87
2023-08-29T02:35:25.746Z,18.91
2023-08-29T02:38:00.568Z,18.93
2023-08-29T02:40:43.548Z,18.94
2023-08-29T02:43:18.848Z,18.94
2023-08-29T02:45:54.690Z,18.96
2023-08-29T02:48:28.586Z,18.99
2023-08-29T02:51:00.816Z,19.02
2023-08-29T02:53:33.037Z,19.03
2023-08-29T02:56:05.690Z,19.04
2023-08-29T02:58:45.934Z,19.04
2023-08-29T03:01:21.825Z,19.05
2023-08-29T03:03:54.347Z,19.05
2023-08-29T03:06:28.897Z,19.06
2023-08-29T03:09:13.507Z,19.08
2023-08-29T03:11:48.025Z,19.08
2023-08-29T03:14:20.241Z,19.06
2023-08-29T03:17:00.151Z,19.04
2023-08-29T03:19:38.546Z,19.05
2023-08-29T03:22:11.685Z,19.08
2023-08-29T03:24:50.444Z,19.10
2023-08-29T03:27:23.502Z,19.14
2023-08-29T03:29:58.529Z,19.18
2023-08-29T03:32:34.262Z,19.19
2023-08-29T03:35:13.225Z,19.21
2023-08-29T03:37:45.967Z,19.22
2023-08-29T03:40:18.330Z,19.24
2023-08-29T03:42:51.123Z,19.25
2023-08-29T03:45:23.203Z,19.28
2023-08-29T03:47:58.131Z,19.33
2023-08-29T03:50:40.682Z,19.39
2023-08-29T03:53:12.731Z,19.40
2023-08-29T03:55:48.389Z,19.41
2023-08-29T03:58:24.590Z,19.38
2023-08-29T04:01:00.715Z,19.39
2023-08-29T04:03:41.660Z,19.44
2023-08-29T04:06:15.480Z,19.45
2023-08-29T04:08:58.555Z,19.42
2023-08-29T04:11:41.190Z,19.39
2023-08-29T04:14:13.523Z,19.36
2023-08-29T04:16:47.707Z,19.34
2023-08-29T04:19:28.824Z,19.32
2023-08-29T04:22:00.851Z,19.31
2023-08-29T04:24:35.865Z,19.34
2023-08-29T04:27:12.510Z,19.33
2023-08-29T04:29:45.814Z,19.28
2023-08-29T04:32:18.622Z,19.20
2023-08-29T04:34:51.465Z,19.14
2023-08-29T04:37:23.423Z,19.11
2023-08-29T04:39:57.921Z,19.10
2023-08-29T04:42:32.470Z,19.10
2023-08-29T04:45:13.940Z,19.11
2023-08-29T04:47:51.224Z,19.11
2023-08-29T04:50:23.674Z,19.10
2023-08-29T04:52:57.222Z,19.08
2023-08-29T04:55:32.557Z,19.09
2023-08-29T04:58:05.014Z,19.06
2023-08-29T05:00:38.267Z,19.03
2023-08-29T05:03:11.065Z,19.01
2023-08-29T05:05:49.099Z,18.99
2023-08-29T05:08:24.363Z,18.99
2023-08-29T05:10:58.245Z,18.99
2023-08-29T05:13:33.332Z,18.96
2023-08-29T05:16:07.081Z,18.97
2023-08-29T05:18:39.474Z,18.98
2023-08-29T05:21:11.943Z,18.98
2023-08-29T05:23:46.223Z,18.97
2023-08-29T05:26:27.849Z,18.99
2023-08-29T05:28:59.809Z,19.02
2023-08-29T05:31:33.153Z,19.07
2023-08-29T05:34:05.170Z,19.10
2023-08-29T05:36:38.368Z,19.11
2023-08-29T05:39:10.559Z,19.12
2023-08-29T05:41:42.859Z,19.13
2023-08-29T05:44:14.968Z,19.15
2023-08-29T05:46:50.992Z,19.16
2023-08-29T05:49:24.015Z,19.17
2023-08-29T05:51:58.776Z,19.19
2023-08-29T05:54:33.140Z,19.20
2023-08-29T05:57:08.506Z,19.21
2023-08-29T05:59:41.765Z,19.24
2023-08-29T06:02:13.941Z,19.27
2023-08-29T06:08:13.332Z,19.36
2023-08-29T06:10:51.289Z,19.43
2023-08-29T06:13:26.873Z,19.50
2023-08-29T06:16:01.366Z,19.58
2023-08-29T06:18:35.661Z,19.69
2023-08-29T06:21:10.914Z,19.79
2023-08-29T06:23:45.815Z,19.89
2023-08-29T06:26:18.760Z,20.03
2023-08-29T06:28:50.929Z,20.15
2023-08-29T06:31:25.790Z,20.30
2023-08-29T06:34:00.934Z,20.45
2023-08-29T06:36:33.052Z,20.59
2023-08-29T06:39:14.773Z,20.71
2023-08-29T06:41:47.636Z,20.87
2023-08-29T06:44:19.981Z,21.02
2023-08-29T06:46:52.833Z,21.16
2023-08-29T06:49:30.209Z,21.33
2023-08-29T06:52:03.899Z,21.46
2023-08-29T06:54:39.430Z,21.58
2023-08-29T06:57:12.937Z,21.67
2023-08-29T06:59:48.685Z,21.76
2023-08-29T07:02:34.854Z,21.80
2023-08-29T07:05:08.309Z,21.83
2023-08-29T07:07:41.925Z,21.87
2023-08-29T07:10:14.456Z,21.92
2023-08-29T07:12:48.388Z,22.01
2023-08-29T07:15:23.897Z,22.11
2023-08-29T07:17:58.151Z,22.26
2023-08-29T07:20:35.830Z,22.37
2023-08-29T07:23:09.856Z,22.49
2023-08-29T07:25:47.715Z,22.60
2023-08-29T07:28:23.029Z,22.64
2023-08-29T07:31:01.832Z,22.73
2023-08-29T07:33:34.934Z,22.82
2023-08-29T07:36:08.538Z,22.88
2023-08-29T07:38:42.570Z,22.95
2023-08-29T07:41:25.462Z,22.99
2023-08-29T07:44:03.953Z,23.00
2023-08-29T07:46:36.887Z,22.96
2023-08-29T07:49:17.492Z,22.98
2023-08-29T07:52:03.138Z,23.04
2023-08-29T07:54:39.190Z,23.06
2023-08-29T07:57:18.397Z,23.07
2023-08-29T07:59:50.919Z,23.09
2023-08-29T08:02:23.403Z,23.08
2023-08-29T08:05:07.729Z,23.15
2023-08-29T08:07:46.844Z,23.21
2023-08-29T08:10:22.623Z,23.26
2023-08-29T08:13:17.327Z,23.28
2023-08-29T08:15:54.413Z,23.29
2023-08-29T08:18:29.780Z,23.32
2023-08-29T08:21:05.829Z,23.33
2023-08-29T08:23:53.562Z,23.43
2023-08-29T08:26:34.486Z,23.55
2023-08-29T08:29:13.720Z,23.64
2023-08-29T08:31:50.851Z,23.68
2023-08-29T08:34:25.123Z,23.73
2023-08-29T08:36:59.749Z,23.76
2023-08-29T08:39:40.135Z,23.79
2023-08-29T08:42:17.423Z,23.82
2023-08-29T08:44:53.408Z,23.91
2023-08-29T08:47:27.790Z,23.96
2023-08-29T08:50:02.066Z,23.95
2023-08-29T08:52:36.656Z,23.98
2023-08-29T08:55:14.577Z,24.02
2023-08-29T08:57:52.431Z,23.97
2023-08-29T09:00:31.352Z,23.90
2023-08-29T09:03:05.505Z,23.92
2023-08-29T09:05:40.365Z,23.95
2023-08-29T09:08:13.189Z,24.01
2023-08-29T09:10:47.817Z,24.07
2023-08-29T09:13:21.932Z,24.05
2023-08-29T09:15:54.028Z,24.02
2023-08-29T09:18:30.356Z,24.02
2023-08-29T09:21:06.343Z,24.09
2023-08-29T09:23:41.820Z,24.12
2023-08-29T09:26:15.346Z,24.21
2023-08-29T09:28:47.976Z,24.40
2023-08-29T09:31:20.032Z,24.65
2023-08-29T09:33:52.240Z,24.81
2023-08-29T09:36:26.974Z,24.87
2023-08-29T09:39:01.285Z,24.91
2023-08-29T09:41:34.014Z,24.99
2023-08-29T09:44:14.685Z,25.06
2023-08-29T09:46:50.736Z,25.10
2023-08-29T09:49:23.306Z,25.01
2023-08-29T09:52:02.693Z,24.92
2023-08-29T09:54:37.057Z,24.88
2023-08-29T09:57:10.833Z,24.93
2023-08-29T09:59:46.574Z,24.97
2023-08-29T10:02:21.778Z,25.01
2023-08-29T10:04:57.916Z,25.13
2023-08-29T10:07:35.823Z,25.22
2023-08-29T10:10:11.590Z,25.21
2023-08-29T10:12:45.709Z,25.16
2023-08-29T10:15:19.505Z,25.22
2023-08-29T10:17:57.238Z,25.31
2023-08-29T10:20:30.280Z,25.41
2023-08-29T10:23:09.310Z,25.51
2023-08-29T10:25:45.415Z,25.56
2023-08-29T10:28:19.105Z,25.61
2023-08-29T10:30:57.124Z,25.74
2023-08-29T10:33:32.602Z,25.81
2023-08-29T10:36:10.911Z,25.83
2023-08-29T10:38:48.714Z,25.89
2023-08-29T10:41:23.325Z,25.93
2023-08-29T10:44:34.108Z,25.99
2023-08-29T10:47:21.619Z,26.13
2023-08-29T10:50:00.497Z,26.26
2023-08-29T10:52:47.985Z,26.38
2023-08-29T10:55:29.999Z,26.44
2023-08-29T10:58:37.138Z,26.53
2023-08-29T11:01:33.025Z,26.58
2023-08-29T11:04:14.137Z,26.63
2023-08-29T11:06:58.234Z,26.69
2023-08-29T11:09:31.438Z,26.74
2023-08-29T11:12:12.322Z,26.82
2023-08-29T11:14:58.059Z,26.89
2023-08-29T11:17:30.221Z,26.91
2023-08-29T11:20:03.866Z,26.94
2023-08-29T11:22:36.056Z,26.98
2023-08-29T11:25:10.263Z,27.06
2023-08-29T11:27:49.854Z,27.16
2023-08-29T11:30:31.249Z,27.21
2023-08-29T11:33:11.084Z,27.18
2023-08-29T11:35:44.265Z,27.15
2023-08-29T11:38:17.469Z,27.13
2023-08-29T11:41:03.642Z,27.15
2023-08-29T11:44:41.635Z,27.24
2023-08-29T11:46:37.430Z,27.27
2023-08-29T11:49:18.581Z,27.31
2023-08-29T11:51:56.681Z,27.39
2023-08-29T11:54:54.331Z,27.35
2023-08-29T11:57:31.141Z,27.44
2023-08-29T12:00:16.677Z,27.64
2023-08-29T12:02:51.496Z,27.56
2023-08-29T12:05:27.193Z,27.53
2023-08-29T12:07:59.209Z,27.63
2023-08-29T12:10:32.701Z,27.70
2023-08-29T12:13:17.625Z,27.62
2023-08-29T12:15:52.434Z,27.68
2023-08-29T12:18:26.185Z,27.73
2023-08-29T12:21:16.716Z,27.70
2023-08-29T12:23:49.268Z,27.67
2023-08-29T12:26:25.906Z,27.69
2023-08-29T12:28:58.538Z,27.63
2023-08-29T12:31:30.879Z,27.61
2023-08-29T12:34:02.915Z,27.63
2023-08-29T12:36:34.987Z,27.55
2023-08-29T12:39:09.881Z,27.48
2023-08-29T12:41:48.385Z,27.38
2023-08-29T12:44:23.550Z,27.30
2023-08-29T12:46:56.077Z,27.33
2023-08-29T12:49:28.241Z,27.37
2023-08-29T12:52:00.534Z,27.38
2023-08-29T12:54:37.109Z,27.36
2023-08-29T12:57:09.660Z,27.37
2023-08-29T12:59:45.050Z,27.39
2023-08-29T13:02:21.018Z,27.37
2023-08-29T13:04:56.098Z,27.35
2023-08-29T13:07:28.187Z,27.31
2023-08-29T13:10:00.332Z,27.27
2023-08-29T13:12:34.854Z,27.22
2023-08-29T13:15:12.478Z,27.17
2023-08-29T13:17:48.404Z,27.12
2023-08-29T13:20:21.504Z,27.03
2023-08-29T13:22:57.423Z,26.92
2023-08-29T13:25:37.001Z,26.76
2023-08-29T13:28:11.200Z,26.66
2023-08-29T13:30:43.781Z,26.56
2023-08-29T13:33:19.638Z,26.48
2023-08-29T13:35:53.986Z,26.40
2023-08-29T13:38:27.863Z,26.34
2023-08-29T13:40:59.977Z,26.35
2023-08-29T13:43:33.089Z,26.35
2023-08-29T13:46:15.791Z,26.37
2023-08-29T13:48:48.836Z,26.40
2023-08-29T13:51:25.880Z,26.49
2023-08-29T13:53:58.246Z,26.43
2023-08-29T13:56:38.335Z,26.38
2023-08-29T13:59:15.357Z,26.35
2023-08-29T14:01:56.144Z,26.34
2023-08-29T14:04:31.824Z,26.38
2023-08-29T14:07:16.750Z,26.36
2023-08-29T14:09:49.483Z,26.32
2023-08-29T14:12:22.330Z,26.23
2023-08-29T14:14:54.629Z,25.98
2023-08-29T14:17:26.869Z,25.84
2023-08-29T14:20:06.258Z,25.74
2023-08-29T14:22:46.614Z,25.64
2023-08-29T14:25:19.380Z,25.56
2023-08-29T14:27:52.366Z,25.47
2023-08-29T14:30:24.932Z,25.43
2023-08-29T14:32:57.811Z,25.40
2023-08-29T14:35:30.652Z,25.32
2023-08-29T14:38:06.962Z,25.27
2023-08-29T14:40:42.261Z,25.22
2023-08-29T14:43:16.416Z,25.16
2023-08-29T14:45:53.335Z,25.10
2023-08-29T14:48:25.381Z,24.96
2023-08-29T14:50:57.767Z,24.86
2023-08-29T14:53:30.562Z,24.82
2023-08-29T14:56:06.465Z,24.80
2023-08-29T14:58:38.564Z,24.78
2023-08-29T15:01:15.204Z,24.76
2023-08-29T15:03:47.687Z,24.76
2023-08-29T15:06:20.342Z,24.77
2023-08-29T15:08:52.455Z,24.80
2023-08-29T15:11:29.510Z,24.87
2023-08-29T15:14:01.507Z,24.92
2023-08-29T15:16:36.432Z,24.93
2023-08-29T15:19:08.552Z,24.93
2023-08-29T15:21:47.376Z,24.95
2023-08-29T15:24:22.885Z,24.95
2023-08-29T15:26:55.379Z,24.87
2023-08-29T15:29:31.256Z,24.83
2023-08-29T15:32:06.643Z,24.79
2023-08-29T15:34:38.961Z,24.81
2023-08-29T15:37:11.122Z,24.84
2023-08-29T15:39:46.590Z,24.77
2023-08-29T15:42:22.602Z,24.66
2023-08-29T15:44:54.881Z,24.58
2023-08-29T15:47:29.288Z,24.54
2023-08-29T15:50:01.460Z,24.50
2023-08-29T15:52:33.478Z,24.49
2023-08-29T15:55:06.769Z,24.47
2023-08-29T15:57:38.800Z,24.39
2023-08-29T16:00:15.530Z,24.32
2023-08-29T16:02:56.013Z,24.29
2023-08-29T16:05:29.938Z,24.25
2023-08-29T16:08:03.421Z,24.19
2023-08-29T16:10:38.264Z,24.12
2023-08-29T16:13:12.899Z,24.06
2023-08-29T16:15:46.841Z,24.02
2023-08-29T16:18:18.836Z,24.00
2023-08-29T16:20:56.129Z,23.98
2023-08-29T16:23:28.354Z,23.95
2023-08-29T16:26:13.511Z,23.87
2023-08-29T16:28:48.995Z,23.80
2023-08-29T16:31:21.150Z,23.78
2023-08-29T16:33:53.191Z,23.75
2023-08-29T16:36:25.422Z,23.71
2023-08-29T16:39:00.332Z,23.70
2023-08-29T16:41:32.793Z,23.66
2023-08-29T16:44:05.567Z,23.58
2023-08-29T16:46:42.237Z,23.55
2023-08-29T16:49:15.260Z,23.52
2023-08-29T16:51:51.191Z,23.44
2023-08-29T16:54:23.881Z,23.37
2023-08-29T16:56:59.102Z,23.32
2023-08-29T16:59:34.588Z,23.26
2023-08-29T17:02:08.917Z,23.18
2023-08-29T17:04:41.046Z,23.12
2023-08-29T17:07:13.925Z,23.06
2023-08-29T17:09:48.930Z,23.02
2023-08-29T17:12:22.678Z,22.99
2023-08-29T17:14:56.128Z,22.98
2023-08-29T17:17:28.401Z,23.00
2023-08-29T17:20:00.712Z,23.05
2023-08-29T17:22:33.169Z,23.10
2023-08-29T17:25:05.737Z,23.13
2023-08-29T17:27:39.219Z,23.12
2023-08-29T17:30:13.492Z,23.09
2023-08-29T17:32:48.266Z,23.02
2023-08-29T17:35:20.711Z,22.97
2023-08-29T17:37:53.012Z,22.90
2023-08-29T17:40:25.407Z,22.85
2023-08-29T17:42:57.734Z,22.83
2023-08-29T17:45:32.200Z,22.80
2023-08-29T17:48:04.961Z,22.77
2023-08-29T17:50:37.670Z,22.72
2023-08-29T17:53:09.950Z,22.68
2023-08-29T17:55:42.315Z,22.63
2023-08-29T17:58:16.322Z,22.55
2023-08-29T18:00:52.752Z,22.45
2023-08-29T18:03:26.345Z,22.39
2023-08-29T18:06:10.333Z,22.35
2023-08-29T18:08:53.806Z,22.31
2023-08-29T18:11:26.393Z,22.25
2023-08-29T18:13:58.573Z,22.24
2023-08-29T18:16:30.726Z,22.19
2023-08-29T18:19:03.311Z,22.13
2023-08-29T18:21:35.677Z,22.08
2023-08-29T18:24:08.654Z,22.09
2023-08-29T18:26:41.087Z,22.10
2023-08-29T18:29:13.278Z,22.12
2023-08-29T18:31:49.628Z,22.13
2023-08-29T18:34:22.332Z,22.13
2023-08-29T18:36:57.868Z,22.03
2023-08-29T18:39:32.234Z,21.89
2023-08-29T18:42:08.368Z,21.79
2023-08-29T18:44:40.387Z,21.75
2023-08-29T18:47:12.813Z,21.75
2023-08-29T18:49:45.097Z,21.69
2023-08-29T18:52:17.850Z,21.60
2023-08-29T18:54:50.647Z,21.51
2023-08-29T18:57:23.426Z,21.41
2023-08-29T18:59:55.702Z,21.30
2023-08-29T19:02:28.301Z,21.22
2023-08-29T19:05:02.903Z,21.19
2023-08-29T19:07:35.736Z,21.16
2023-08-29T19:10:10.417Z,21.10
2023-08-29T19:12:42.582Z,21.02
2023-08-29T19:15:16.037Z,20.96
2023-08-29T19:17:52.151Z,20.92
2023-08-29T19:20:30.027Z,20.87
2023-08-29T19:23:02.517Z,20.80
2023-08-29T19:25:39.993Z,20.75
2023-08-29T19:28:21.556Z,20.70
2023-08-29T19:30:55.740Z,20.62
2023-08-29T19:33:28.242Z,20.53
2023-08-29T19:36:17.544Z,20.46
2023-08-29T19:38:59.017Z,20.43
2023-08-29T19:41:37.554Z,20.42
2023-08-29T19:44:11.458Z,20.39
2023-08-29T19:46:43.912Z,20.36
2023-08-29T19:49:16.699Z,20.35
2023-08-29T19:51:57.080Z,20.35
2023-08-29T19:54:34.898Z,20.36
2023-08-29T19:57:06.638Z,20.34
2023-08-29T19:59:38.966Z,20.31
2023-08-29T20:02:11.491Z,20.27
2023-08-29T20:04:46.347Z,20.29
2023-08-29T20:07:18.680Z,20.29
2023-08-29T20:09:51.056Z,20.28
2023-08-29T20:12:27.626Z,20.28
2023-08-29T20:15:03.076Z,20.28
2023-08-29T20:17:37.832Z,20.28
2023-08-29T20:20:15.778Z,20.28
2023-08-29T20:22:50.379Z,20.28
2023-08-29T20:25:27.839Z,20.35
2023-08-29T20:28:00.054Z,20.35
2023-08-29T20:30:42.233Z,20.28
2023-08-29T20:33:15.590Z,20.20
2023-08-29T20:35:49.403Z,20.14
2023-08-29T20:38:21.517Z,20.09
2023-08-29T20:40:54.648Z,20.10
2023-08-29T20:43:26.765Z,20.15
2023-08-29T20:46:02.700Z,20.21
2023-08-29T20:48:34.853Z,20.26
2023-08-29T20:51:09.917Z,20.25
2023-08-29T20:53:43.517Z,20.22
2023-08-29T20:56:15.723Z,20.24
2023-08-29T20:58:48.022Z,20.21
2023-08-29T21:01:20.462Z,20.17
2023-08-29T21:03:53.094Z,20.11
2023-08-29T21:06:26.809Z,20.03
2023-08-29T21:09:00.922Z,19.98
2023-08-29T21:11:33.170Z,19.95
2023-08-29T21:14:05.222Z,19.98
2023-08-29T21:16:37.570Z,20.00
2023-08-29T21:19:15.615Z,19.96
2023-08-29T21:21:51.074Z,19.91
2023-08-29T21:24:23.070Z,19.90
2023-08-29T21:26:56.637Z,19.97
2023-08-29T21:29:28.602Z,20.07
2023-08-29T21:32:00.893Z,20.16
2023-08-29T21:34:35.902Z,20.18
2023-08-29T21:37:15.862Z,20.16
2023-08-29T21:39:49.264Z,20.12
2023-08-29T21:42:21.911Z,20.06
2023-08-29T21:44:55.844Z,20.01
2023-08-29T21:47:28.145Z,20.00
2023-08-29T21:50:00.281Z,20.00
2023-08-29T21:52:32.560Z,20.06
2023-08-29T21:55:09.548Z,20.08
2023-08-29T21:57:45.476Z,20.07
2023-08-29T22:00:20.817Z,20.03
2023-08-29T22:02:55.975Z,20.01
2023-08-29T22:05:30.222Z,20.04
2023-08-29T22:08:05.235Z,20.08
2023-08-29T22:11:02.214Z,20.06
2023-08-29T22:13:36.490Z,20.03
2023-08-29T22:16:08.793Z,19.98
2023-08-29T22:18:42.363Z,19.92
2023-08-29T22:21:14.845Z,19.90
2023-08-29T22:23:49.547Z,19.89
2023-08-29T22:26:21.619Z,19.86
2023-08-29T22:28:56.225Z,19.77
2023-08-29T22:31:29.800Z,19.69
2023-08-29T22:34:02.271Z,19.70
2023-08-29T22:36:35.985Z,19.79
2023-08-29T22:39:11.499Z,19.87
2023-08-29T22:41:43.791Z,19.94
2023-08-29T22:44:18.627Z,20.00
2023-08-29T22:46:50.648Z,20.06
2023-08-29T22:49:22.831Z,20.08
2023-08-29T22:51:54.895Z,20.12
2023-08-29T22:54:30.652Z,20.12
2023-08-29T22:57:09.171Z,20.13
2023-08-29T22:59:41.212Z,20.15
2023-08-29T23:02:13.586Z,20.15
2023-08-29T23:04:48.123Z,20.12
2023-08-29T23:07:21.437Z,20.10
2023-08-29T23:09:53.944Z,20.07
2023-08-29T23:12:26.625Z,20.01
2023-08-29T23:14:59.438Z,19.97
2023-08-29T23:17:31.535Z,19.96
2023-08-29T23:20:05.601Z,19.95
2023-08-29T23:22:37.928Z,19.95
2023-08-29T23:25:13.980Z,19.95
2023-08-29T23:27:47.924Z,19.94
2023-08-29T23:30:20.486Z,19.96
2023-08-29T23:32:54.258Z,19.95
2023-08-29T23:35:26.358Z,19.93
2023-08-29T23:37:58.477Z,19.86
2023-08-29T23:40:30.669Z,19.79
2023-08-29T23:43:10.070Z,19.74
2023-08-29T23:45:42.358Z,19.77
2023-08-29T23:48:16.456Z,19.74
2023-08-29T23:50:48.553Z,19.76
2023-08-29T23:53:20.728Z,19.77
2023-08-29T23:55:53.023Z,19.78
2023-08-29T23:58:25.284Z,19.81
